North Adams, Massachusetts
Current Conditions -  °F | °C
As of 9:52 PM on Sunday 23 Nov 2014 (Local Time) from KAQW Reporting Station
Clear Clear  
Wind Chill: 36°   Ceiling: Unl
Heat Index: 42°   Visibility: 10mi
Dew Point: 35°   Wind: 10mph
Humidity: 76%   Direction: 100°E
Pressure: 30.05"   Gusts: NA
Location:  42.7°N, 73.11°W
Report Text: KAQW 240252Z AUTO 10009KT 10SM CLR 06/02 A3005 RMK AO2 SLP181 T00560017 58007
Loading
Personal Weather Stations






























Interactive Weather Map New forecast layout! Learn more

10-Day Weather Forecast

Advertisements
Track Severe Weather on mobile